sensor_id;sensor_type;location;lat;lon;timestamp;pressure;altitude;pressure_sealevel;temperature;humidity
9139;BME280;4604;48.616;9.548;2023-04-28T00:00:48;96739.22;;;12.82;67.23
9139;BME280;4604;48.616;9.548;2023-04-28T00:03:15;96732.47;;;12.88;66.66
9139;BME280;4604;48.616;9.548;2023-04-28T00:05:42;96737.00;;;13.03;66.00
9139;BME280;4604;48.616;9.548;2023-04-28T00:08:08;96726.53;;;12.94;66.74
9139;BME280;4604;48.616;9.548;2023-04-28T00:10:35;96725.84;;;12.92;67.78
9139;BME280;4604;48.616;9.548;2023-04-28T00:13:03;96720.19;;;12.87;68.29
9139;BME280;4604;48.616;9.548;2023-04-28T00:15:30;96716.59;;;12.88;67.88
9139;BME280;4604;48.616;9.548;2023-04-28T00:17:56;96719.41;;;12.94;67.38
9139;BME280;4604;48.616;9.548;2023-04-28T00:20:23;96717.91;;;12.92;67.54
9139;BME280;4604;48.616;9.548;2023-04-28T00:22:49;96720.72;;;12.90;67.76
9139;BME280;4604;48.616;9.548;2023-04-28T00:25:16;96715.59;;;12.89;67.98
9139;BME280;4604;48.616;9.548;2023-04-28T00:27:43;96708.31;;;12.91;67.91
9139;BME280;4604;48.616;9.548;2023-04-28T00:30:11;96705.19;;;12.95;67.67
9139;BME280;4604;48.616;9.548;2023-04-28T00:32:38;96703.84;;;12.99;67.09
9139;BME280;4604;48.616;9.548;2023-04-28T00:35:05;96701.28;;;13.16;65.72
9139;BME280;4604;48.616;9.548;2023-04-28T00:37:35;96689.19;;;13.13;65.86
9139;BME280;4604;48.616;9.548;2023-04-28T00:40:01;96682.72;;;13.16;65.79
9139;BME280;4604;48.616;9.548;2023-04-28T00:42:29;96690.03;;;13.22;65.53
9139;BME280;4604;48.616;9.548;2023-04-28T00:44:56;96682.28;;;13.28;66.19
9139;BME280;4604;48.616;9.548;2023-04-28T00:47:24;96679.50;;;13.30;66.44
9139;BME280;4604;48.616;9.548;2023-04-28T00:49:51;96675.53;;;13.34;65.87
9139;BME280;4604;48.616;9.548;2023-04-28T00:52:18;96673.56;;;13.44;64.75
9139;BME280;4604;48.616;9.548;2023-04-28T00:54:44;96671.06;;;13.43;63.84
9139;BME280;4604;48.616;9.548;2023-04-28T00:57:12;96679.19;;;13.49;64.21
9139;BME280;4604;48.616;9.548;2023-04-28T00:59:39;96671.56;;;13.63;63.89
9139;BME280;4604;48.616;9.548;2023-04-28T01:02:06;96679.88;;;13.52;64.06
9139;BME280;4604;48.616;9.548;2023-04-28T01:04:35;96679.19;;;13.49;63.67
9139;BME280;4604;48.616;9.548;2023-04-28T01:07:02;96683.69;;;13.49;64.17
9139;BME280;4604;48.616;9.548;2023-04-28T01:09:28;96675.88;;;13.39;65.34
9139;BME280;4604;48.616;9.548;2023-04-28T01:11:55;96673.72;;;13.43;64.82
9139;BME280;4604;48.616;9.548;2023-04-28T01:14:22;96664.25;;;13.40;65.31
9139;BME280;4604;48.616;9.548;2023-04-28T01:16:49;96671.53;;;13.38;65.26
9139;BME280;4604;48.616;9.548;2023-04-28T01:19:19;96671.06;;;13.35;65.56
9139;BME280;4604;48.616;9.548;2023-04-28T01:21:47;96663.44;;;13.32;66.20
9139;BME280;4604;48.616;9.548;2023-04-28T01:24:16;96663.09;;;13.35;66.56
9139;BME280;4604;48.616;9.548;2023-04-28T01:26:43;96667.88;;;13.31;66.76
9139;BME280;4604;48.616;9.548;2023-04-28T01:29:10;96664.75;;;13.36;66.15
9139;BME280;4604;48.616;9.548;2023-04-28T01:31:37;96657.47;;;13.46;64.49
9139;BME280;4604;48.616;9.548;2023-04-28T01:34:03;96656.66;;;13.45;64.43
9139;BME280;4604;48.616;9.548;2023-04-28T01:36:30;96652.00;;;13.56;63.73
9139;BME280;4604;48.616;9.548;2023-04-28T01:38:57;96660.97;;;13.63;63.31
9139;BME280;4604;48.616;9.548;2023-04-28T01:41:25;96656.00;;;13.60;63.27
9139;BME280;4604;48.616;9.548;2023-04-28T01:43:52;96650.19;;;13.64;63.41
9139;BME280;4604;48.616;9.548;2023-04-28T01:46:18;96633.78;;;13.53;63.32
9139;BME280;4604;48.616;9.548;2023-04-28T01:48:45;96642.06;;;13.58;63.35
9139;BME280;4604;48.616;9.548;2023-04-28T01:51:11;96638.25;;;13.60;62.83
9139;BME280;4604;48.616;9.548;2023-04-28T01:53:38;96645.72;;;13.65;63.05
9139;BME280;4604;48.616;9.548;2023-04-28T01:56:11;96646.38;;;13.67;62.89
9139;BME280;4604;48.616;9.548;2023-04-28T01:58:39;96649.38;;;13.64;63.04
9139;BME280;4604;48.616;9.548;2023-04-28T02:01:05;96639.44;;;13.74;62.68
9139;BME280;4604;48.616;9.548;2023-04-28T02:03:32;96635.44;;;13.70;63.01
9139;BME280;4604;48.616;9.548;2023-04-28T02:05:59;96633.81;;;13.69;63.13
9139;BME280;4604;48.616;9.548;2023-04-28T02:08:26;96626.31;;;13.73;62.62
9139;BME280;4604;48.616;9.548;2023-04-28T02:10:52;96626.50;;;13.71;62.70
9139;BME280;4604;48.616;9.548;2023-04-28T02:13:22;96618.22;;;13.74;62.07
9139;BME280;4604;48.616;9.548;2023-04-28T02:15:50;96629.47;;;13.84;61.67
9139;BME280;4604;48.616;9.548;2023-04-28T02:18:17;96627.31;;;13.80;61.31
9139;BME280;4604;48.616;9.548;2023-04-28T02:20:43;96631.81;;;13.79;61.58
9139;BME280;4604;48.616;9.548;2023-04-28T02:23:10;96638.78;;;13.80;62.03
9139;BME280;4604;48.616;9.548;2023-04-28T02:25:37;96625.53;;;13.80;61.87
9139;BME280;4604;48.616;9.548;2023-04-28T02:28:03;96624.00;;;13.86;61.46
9139;BME280;4604;48.616;9.548;2023-04-28T02:30:30;96617.38;;;13.82;61.09
9139;BME280;4604;48.616;9.548;2023-04-28T02:32:58;96617.03;;;13.85;61.54
9139;BME280;4604;48.616;9.548;2023-04-28T02:35:25;96606.91;;;13.97;60.24
9139;BME280;4604;48.616;9.548;2023-04-28T02:37:51;96598.47;;;13.93;59.55
9139;BME280;4604;48.616;9.548;2023-04-28T02:40:18;96601.97;;;13.85;59.84
9139;BME280;4604;48.616;9.548;2023-04-28T02:42:45;96603.59;;;14.03;58.73
9139;BME280;4604;48.616;9.548;2023-04-28T02:45:12;96606.59;;;13.91;59.02
9139;BME280;4604;48.616;9.548;2023-04-28T02:47:38;96611.56;;;13.95;59.19
9139;BME280;4604;48.616;9.548;2023-04-28T02:50:08;96604.13;;;13.90;59.54
9139;BME280;4604;48.616;9.548;2023-04-28T02:52:35;96607.41;;;13.92;59.50
9139;BME280;4604;48.616;9.548;2023-04-28T02:55:01;96598.47;;;13.85;59.79
9139;BME280;4604;48.616;9.548;2023-04-28T02:57:29;96591.03;;;13.80;60.00
9139;BME280;4604;48.616;9.548;2023-04-28T02:59:55;96598.13;;;13.80;60.01
9139;BME280;4604;48.616;9.548;2023-04-28T03:02:22;96595.50;;;13.80;59.97
9139;BME280;4604;48.616;9.548;2023-04-28T03:04:49;96591.03;;;13.80;59.88
9139;BME280;4604;48.616;9.548;2023-04-28T03:07:17;96591.66;;;13.82;59.61
9139;BME280;4604;48.616;9.548;2023-04-28T03:09:44;96589.69;;;13.84;58.86
9139;BME280;4604;48.616;9.548;2023-04-28T03:12:11;96599.13;;;13.87;58.87
9139;BME280;4604;48.616;9.548;2023-04-28T03:14:37;96598.16;;;13.88;58.95
9139;BME280;4604;48.616;9.548;2023-04-28T03:17:04;96582.91;;;13.90;58.97
9139;BME280;4604;48.616;9.548;2023-04-28T03:19:31;96580.56;;;13.87;59.13
9139;BME280;4604;48.616;9.548;2023-04-28T03:21:58;96588.53;;;13.87;59.34
9139;BME280;4604;48.616;9.548;2023-04-28T03:24:26;96585.19;;;13.85;59.45
9139;BME280;4604;48.616;9.548;2023-04-28T03:26:53;96586.38;;;13.82;59.90
9139;BME280;4604;48.616;9.548;2023-04-28T03:29:19;96578.78;;;13.71;59.53
9139;BME280;4604;48.616;9.548;2023-04-28T03:31:48;96583.56;;;13.84;59.97
9139;BME280;4604;48.616;9.548;2023-04-28T03:34:15;96592.34;;;13.84;60.25
9139;BME280;4604;48.616;9.548;2023-04-28T03:36:41;96579.25;;;13.83;59.96
9139;BME280;4604;48.616;9.548;2023-04-28T03:39:10;96586.06;;;13.85;60.10
9139;BME280;4604;48.616;9.548;2023-04-28T03:41:38;96584.38;;;13.84;60.53
9139;BME280;4604;48.616;9.548;2023-04-28T03:44:04;96574.13;;;13.81;61.68
9139;BME280;4604;48.616;9.548;2023-04-28T03:46:31;96576.75;;;13.81;62.49
9139;BME280;4604;48.616;9.548;2023-04-28T03:48:59;96574.13;;;13.81;62.06
9139;BME280;4604;48.616;9.548;2023-04-28T03:51:26;96578.91;;;13.86;63.17
9139;BME280;4604;48.616;9.548;2023-04-28T03:53:53;96583.22;;;13.87;63.53
9139;BME280;4604;48.616;9.548;2023-04-28T03:56:20;96584.03;;;13.96;65.27
9139;BME280;4604;48.616;9.548;2023-04-28T03:58:48;96581.00;;;14.07;62.30
9139;BME280;4604;48.616;9.548;2023-04-28T04:01:15;96591.44;;;14.17;61.73
9139;BME280;4604;48.616;9.548;2023-04-28T04:03:42;96586.47;;;14.13;62.06
9139;BME280;4604;48.616;9.548;2023-04-28T04:06:08;96589.13;;;14.13;61.86
9139;BME280;4604;48.616;9.548;2023-04-28T04:08:35;96585.81;;;14.20;61.54
9139;BME280;4604;48.616;9.548;2023-04-28T04:11:02;96576.88;;;14.12;62.19
9139;BME280;4604;48.616;9.548;2023-04-28T04:13:28;96593.97;;;14.10;62.74
9139;BME280;4604;48.616;9.548;2023-04-28T04:15:56;96593.44;;;14.23;64.17
9139;BME280;4604;48.616;9.548;2023-04-28T04:18:23;96589.47;;;14.10;64.79
9139;BME280;4604;48.616;9.548;2023-04-28T04:20:50;96588.16;;;14.06;64.63
9139;BME280;4604;48.616;9.548;2023-04-28T04:23:18;96580.81;;;14.17;64.47
9139;BME280;4604;48.616;9.548;2023-04-28T04:25:45;96577.72;;;14.05;65.42
9139;BME280;4604;48.616;9.548;2023-04-28T04:28:12;96569.56;;;14.15;65.87
9139;BME280;4604;48.616;9.548;2023-04-28T04:30:38;96578.38;;;14.07;67.38
9139;BME280;4604;48.616;9.548;2023-04-28T04:33:07;96569.59;;;13.98;68.22
9139;BME280;4604;48.616;9.548;2023-04-28T04:35:33;96580.19;;;14.06;68.74
9139;BME280;4604;48.616;9.548;2023-04-28T04:38:01;96568.28;;;14.02;69.30
9139;BME280;4604;48.616;9.548;2023-04-28T04:40:27;96565.16;;;13.90;70.39
9139;BME280;4604;48.616;9.548;2023-04-28T04:42:54;96570.09;;;14.02;69.59
9139;BME280;4604;48.616;9.548;2023-04-28T04:45:21;96570.09;;;14.10;69.32
9139;BME280;4604;48.616;9.548;2023-04-28T04:47:47;96566.94;;;14.06;70.56
9139;BME280;4604;48.616;9.548;2023-04-28T04:50:16;96563.78;;;13.95;72.03
9139;BME280;4604;48.616;9.548;2023-04-28T04:52:42;96564.97;;;14.00;71.83
9139;BME280;4604;48.616;9.548;2023-04-28T04:55:09;96566.44;;;13.95;72.55
9139;BME280;4604;48.616;9.548;2023-04-28T04:57:36;96563.66;;;13.88;73.94
9139;BME280;4604;48.616;9.548;2023-04-28T05:00:03;96565.00;;;13.84;74.33
9139;BME280;4604;48.616;9.548;2023-04-28T05:02:30;96566.00;;;13.83;75.06
9139;BME280;4604;48.616;9.548;2023-04-28T05:04:57;96576.59;;;13.75;76.94
9139;BME280;4604;48.616;9.548;2023-04-28T05:07:25;96581.09;;;13.74;78.19
9139;BME280;4604;48.616;9.548;2023-04-28T05:09:52;96578.59;;;13.64;78.97
9139;BME280;4604;48.616;9.548;2023-04-28T05:12:18;96577.28;;;13.60;81.24
9139;BME280;4604;48.616;9.548;2023-04-28T05:14:45;96578.78;;;13.55;82.96
9139;BME280;4604;48.616;9.548;2023-04-28T05:17:12;96579.13;;;13.52;84.35
9139;BME280;4604;48.616;9.548;2023-04-28T05:19:41;96581.44;;;13.46;85.54
9139;BME280;4604;48.616;9.548;2023-04-28T05:22:09;96582.56;;;13.36;87.42
9139;BME280;4604;48.616;9.548;2023-04-28T05:24:37;96578.94;;;13.37;89.63
9139;BME280;4604;48.616;9.548;2023-04-28T05:27:04;96588.50;;;13.21;90.57
9139;BME280;4604;48.616;9.548;2023-04-28T05:29:31;96589.84;;;13.17;91.14
9139;BME280;4604;48.616;9.548;2023-04-28T05:31:57;96589.84;;;13.17;91.78
9139;BME280;4604;48.616;9.548;2023-04-28T05:34:24;96584.69;;;13.16;91.80
9139;BME280;4604;48.616;9.548;2023-04-28T05:36:51;96582.84;;;13.16;92.81
9139;BME280;4604;48.616;9.548;2023-04-28T05:39:18;96571.94;;;13.03;96.55
9139;BME280;4604;48.616;9.548;2023-04-28T05:41:46;96589.66;;;13.11;96.83
9139;BME280;4604;48.616;9.548;2023-04-28T05:44:12;96586.69;;;13.22;97.84
9139;BME280;4604;48.616;9.548;2023-04-28T05:46:39;96584.53;;;13.17;99.26
9139;BME280;4604;48.616;9.548;2023-04-28T05:49:06;96583.91;;;13.32;100.00
9139;BME280;4604;48.616;9.548;2023-04-28T05:51:32;96586.69;;;13.22;100.00
9139;BME280;4604;48.616;9.548;2023-04-28T05:53:59;96579.38;;;13.16;100.00
9139;BME280;4604;48.616;9.548;2023-04-28T05:56:25;96576.06;;;12.97;100.00
9139;BME280;4604;48.616;9.548;2023-04-28T05:58:53;96586.31;;;13.00;100.00
9139;BME280;4604;48.616;9.548;2023-04-28T06:01:24;96590.63;;;13.01;100.00
9139;BME280;4604;48.616;9.548;2023-04-28T06:03:51;96595.78;;;13.03;100.00
9139;BME280;4604;48.616;9.548;2023-04-28T06:06:22;96573.56;;;12.96;100.00
9139;BME280;4604;48.616;9.548;2023-04-28T06:08:48;96588.78;;;13.02;100.00
9139;BME280;4604;48.616;9.548;2023-04-28T06:11:15;96582.16;;;12.90;100.00
9139;BME280;4604;48.616;9.548;2023-04-28T06:13:46;96593.09;;;12.95;100.00
9139;BME280;4604;48.616;9.548;2023-04-28T06:16:14;96593.41;;;12.92;100.00
9139;BME280;4604;48.616;9.548;2023-04-28T06:18:41;96588.63;;;12.95;100.00
9139;BME280;4604;48.616;9.548;2023-04-28T06:21:07;96586.81;;;12.96;100.00
9139;BME280;4604;48.616;9.548;2023-04-28T06:23:34;96589.47;;;12.96;100.00
9139;BME280;4604;48.616;9.548;2023-04-28T06:26:03;96580.03;;;12.93;100.00
9139;BME280;4604;48.616;9.548;2023-04-28T06:28:29;96579.69;;;12.88;100.00
9139;BME280;4604;48.616;9.548;2023-04-28T06:30:56;96580.50;;;12.97;100.00
9139;BME280;4604;48.616;9.548;2023-04-28T06:33:25;96561.28;;;12.78;100.00
9139;BME280;4604;48.616;9.548;2023-04-28T06:35:52;96577.66;;;12.82;100.00
9139;BME280;4604;48.616;9.548;2023-04-28T06:38:19;96570.06;;;12.87;100.00
9139;BME280;4604;48.616;9.548;2023-04-28T06:40:45;96570.72;;;12.89;100.00
9139;BME280;4604;48.616;9.548;2023-04-28T06:43:12;96575.09;;;13.15;100.00
9139;BME280;4604;48.616;9.548;2023-04-28T06:45:41;96569.44;;;12.93;100.00
9139;BME280;4604;48.616;9.548;2023-04-28T06:48:08;96566.09;;;12.99;100.00
9139;BME280;4604;48.616;9.548;2023-04-28T06:50:37;96558.00;;;12.93;100.00
9139;BME280;4604;48.616;9.548;2023-04-28T06:53:04;96556.19;;;12.85;100.00
9139;BME280;4604;48.616;9.548;2023-04-28T06:55:32;96559.78;;;12.76;100.00
9139;BME280;4604;48.616;9.548;2023-04-28T06:57:59;96556.19;;;12.85;100.00
9139;BME280;4604;48.616;9.548;2023-04-28T07:00:26;96545.41;;;12.78;100.00
9139;BME280;4604;48.616;9.548;2023-04-28T07:02:52;96552.69;;;12.84;100.00
9139;BME280;4604;48.616;9.548;2023-04-28T07:05:22;96551.03;;;12.92;100.00
9139;BME280;4604;48.616;9.548;2023-04-28T07:07:50;96547.41;;;13.01;100.00
9139;BME280;4604;48.616;9.548;2023-04-28T07:10:17;96545.94;;;13.15;100.00
9139;BME280;4604;48.616;9.548;2023-04-28T07:12:44;96543.13;;;13.24;100.00
9139;BME280;4604;48.616;9.548;2023-04-28T07:15:11;96546.91;;;13.14;100.00
9139;BME280;4604;48.616;9.548;2023-04-28T07:17:37;96540.81;;;13.05;100.00
9139;BME280;4604;48.616;9.548;2023-04-28T07:20:05;96542.94;;;13.01;100.00
9139;BME280;4604;48.616;9.548;2023-04-28T07:22:32;96545.94;;;13.15;100.00
9139;BME280;4604;48.616;9.548;2023-04-28T07:25:00;96543.97;;;13.17;100.00
9139;BME280;4604;48.616;9.548;2023-04-28T07:27:26;96532.34;;;13.18;100.00
9139;BME280;4604;48.616;9.548;2023-04-28T07:29:53;96536.22;;;13.32;100.00
9139;BME280;4604;48.616;9.548;2023-04-28T07:32:20;96534.72;;;13.29;100.00
9139;BME280;4604;48.616;9.548;2023-04-28T07:34:49;96541.13;;;13.18;100.00
9139;BME280;4604;48.616;9.548;2023-04-28T07:37:16;96532.22;;;13.27;100.00
9139;BME280;4604;48.616;9.548;2023-04-28T07:39:44;96526.91;;;13.19;100.00
9139;BME280;4604;48.616;9.548;2023-04-28T07:42:12;96526.78;;;13.29;100.00
9139;BME280;4604;48.616;9.548;2023-04-28T07:44:38;96531.22;;;13.28;100.00
9139;BME280;4604;48.616;9.548;2023-04-28T07:47:05;96512.31;;;13.23;100.00
9139;BME280;4604;48.616;9.548;2023-04-28T07:49:32;96525.75;;;13.22;100.00
9139;BME280;4604;48.616;9.548;2023-04-28T07:51:59;96519.47;;;13.31;100.00
9139;BME280;4604;48.616;9.548;2023-04-28T07:54:26;96511.03;;;13.27;100.00
9139;BME280;4604;48.616;9.548;2023-04-28T07:56:55;96515.66;;;13.34;100.00
9139;BME280;4604;48.616;9.548;2023-04-28T07:59:23;96520.97;;;13.42;100.00
9139;BME280;4604;48.616;9.548;2023-04-28T08:01:50;96512.81;;;13.43;100.00
9139;BME280;4604;48.616;9.548;2023-04-28T08:04:16;96520.97;;;13.42;100.00
9139;BME280;4604;48.616;9.548;2023-04-28T08:06:43;96524.25;;;13.36;100.00
9139;BME280;4604;48.616;9.548;2023-04-28T08:09:10;96519.97;;;13.35;100.00
9139;BME280;4604;48.616;9.548;2023-04-28T08:11:36;96514.47;;;13.36;100.00
9139;BME280;4604;48.616;9.548;2023-04-28T08:14:03;96510.84;;;13.45;100.00
9139;BME280;4604;48.616;9.548;2023-04-28T08:16:31;96518.81;;;13.37;100.00
9139;BME280;4604;48.616;9.548;2023-04-28T08:18:58;96517.66;;;13.32;100.00
9139;BME280;4604;48.616;9.548;2023-04-28T08:21:25;96511.84;;;13.28;100.00
9139;BME280;4604;48.616;9.548;2023-04-28T08:23:52;96515.31;;;13.28;100.00
9139;BME280;4604;48.616;9.548;2023-04-28T08:26:19;96521.78;;;13.42;100.00
9139;BME280;4604;48.616;9.548;2023-04-28T08:28:45;96522.13;;;13.39;100.00
9139;BME280;4604;48.616;9.548;2023-04-28T08:31:12;96545.63;;;13.42;100.00
9139;BME280;4604;48.616;9.548;2023-04-28T08:33:40;96546.47;;;13.35;100.00
9139;BME280;4604;48.616;9.548;2023-04-28T08:36:08;96559.41;;;13.30;100.00
9139;BME280;4604;48.616;9.548;2023-04-28T08:38:36;96560.22;;;13.38;100.00
9139;BME280;4604;48.616;9.548;2023-04-28T08:41:03;96560.38;;;13.28;100.00
9139;BME280;4604;48.616;9.548;2023-04-28T08:43:31;96564.38;;;13.33;100.00
9139;BME280;4604;48.616;9.548;2023-04-28T08:45:59;96561.88;;;13.31;100.00
9139;BME280;4604;48.616;9.548;2023-04-28T08:48:29;96560.56;;;13.35;100.00
9139;BME280;4604;48.616;9.548;2023-04-28T08:51:00;96558.41;;;13.39;100.00
9139;BME280;4604;48.616;9.548;2023-04-28T08:53:27;96559.88;;;13.49;100.00
9139;BME280;4604;48.616;9.548;2023-04-28T08:55:55;96572.81;;;13.53;100.00
9139;BME280;4604;48.616;9.548;2023-04-28T08:58:22;96572.47;;;13.56;100.00
9139;BME280;4604;48.616;9.548;2023-04-28T09:00:49;96571.34;;;13.58;100.00
9139;BME280;4604;48.616;9.548;2023-04-28T09:03:16;96584.06;;;13.63;100.00
9139;BME280;4604;48.616;9.548;2023-04-28T09:05:43;96577.28;;;13.68;100.00
9139;BME280;4604;48.616;9.548;2023-04-28T09:08:11;96572.97;;;13.76;100.00
9139;BME280;4604;48.616;9.548;2023-04-28T09:10:39;96572.44;;;13.88;100.00
9139;BME280;4604;48.616;9.548;2023-04-28T09:13:06;96558.53;;;13.86;100.00
9139;BME280;4604;48.616;9.548;2023-04-28T09:15:34;96581.56;;;14.02;100.00
9139;BME280;4604;48.616;9.548;2023-04-28T09:18:01;96581.19;;;14.05;100.00
9139;BME280;4604;48.616;9.548;2023-04-28T09:20:29;96594.47;;;13.97;100.00
9139;BME280;4604;48.616;9.548;2023-04-28T09:23:14;96587.50;;;13.96;100.00
9139;BME280;4604;48.616;9.548;2023-04-28T09:25:54;96579.72;;;13.95;100.00
9139;BME280;4604;48.616;9.548;2023-04-28T09:28:22;96593.31;;;14.08;100.00
9139;BME280;4604;48.616;9.548;2023-04-28T09:30:48;96583.66;;;14.07;100.00
9139;BME280;4604;48.616;9.548;2023-04-28T09:33:15;96588.50;;;14.03;100.00
9139;BME280;4604;48.616;9.548;2023-04-28T09:35:42;96588.50;;;14.03;100.00
9139;BME280;4604;48.616;9.548;2023-04-28T09:38:13;96582.50;;;14.18;100.00
9139;BME280;4604;48.616;9.548;2023-04-28T09:40:53;96592.00;;;13.96;100.00
9139;BME280;4604;48.616;9.548;2023-04-28T09:43:26;96601.31;;;13.83;100.00
9139;BME280;4604;48.616;9.548;2023-04-28T09:45:55;96605.06;;;14.13;100.00
9139;BME280;4604;48.616;9.548;2023-04-28T09:48:30;96604.88;;;14.23;100.00
9139;BME280;4604;48.616;9.548;2023-04-28T09:50:58;96598.94;;;14.13;100.00
9139;BME280;4604;48.616;9.548;2023-04-28T09:53:27;96607.41;;;14.00;100.00
9139;BME280;4604;48.616;9.548;2023-04-28T09:55:56;96612.06;;;13.65;100.00
9139;BME280;4604;48.616;9.548;2023-04-28T09:58:25;96619.22;;;13.73;100.00
9139;BME280;4604;48.616;9.548;2023-04-28T10:00:53;96612.91;;;13.58;100.00
9139;BME280;4604;48.616;9.548;2023-04-28T10:03:24;96604.47;;;13.54;100.00
9139;BME280;4604;48.616;9.548;2023-04-28T10:05:51;96600.47;;;13.50;100.00
9139;BME280;4604;48.616;9.548;2023-04-28T10:08:19;96606.59;;;13.67;100.00
9139;BME280;4604;48.616;9.548;2023-04-28T10:10:48;96609.44;;;13.90;100.00
9139;BME280;4604;48.616;9.548;2023-04-28T10:13:17;96599.25;;;14.18;100.00
9139;BME280;4604;48.616;9.548;2023-04-28T10:15:44;96603.88;;;14.16;100.00
9139;BME280;4604;48.616;9.548;2023-04-28T10:18:11;96598.22;;;14.27;100.00
9139;BME280;4604;48.616;9.548;2023-04-28T10:20:39;96601.50;;;14.54;100.00
9139;BME280;4604;48.616;9.548;2023-04-28T10:23:20;96604.91;;;14.71;100.00
9139;BME280;4604;48.616;9.548;2023-04-28T10:25:54;96597.84;;;14.86;100.00
9139;BME280;4604;48.616;9.548;2023-04-28T10:28:25;96580.81;;;15.04;100.00
9139;BME280;4604;48.616;9.548;2023-04-28T10:31:11;96596.59;;;15.28;100.00
9139;BME280;4604;48.616;9.548;2023-04-28T10:33:39;96604.63;;;15.43;100.00
9139;BME280;4604;48.616;9.548;2023-04-28T10:36:06;96583.06;;;15.61;100.00
9139;BME280;4604;48.616;9.548;2023-04-28T10:41:35;96595.78;;;15.74;100.00
9139;BME280;4604;48.616;9.548;2023-04-28T10:47:04;96596.63;;;15.89;100.00
9139;BME280;4604;48.616;9.548;2023-04-28T10:50:07;96594.91;;;15.96;100.00
9139;BME280;4604;48.616;9.548;2023-04-28T10:52:55;96583.09;;;16.29;100.00
9139;BME280;4604;48.616;9.548;2023-04-28T10:55:26;96592.28;;;16.26;100.00
9139;BME280;4604;48.616;9.548;2023-04-28T11:01:26;96598.78;;;16.38;100.00
9139;BME280;4604;48.616;9.548;2023-04-28T11:03:54;96590.16;;;16.21;100.00
9139;BME280;4604;48.616;9.548;2023-04-28T11:06:29;96606.06;;;16.15;100.00
9139;BME280;4604;48.616;9.548;2023-04-28T11:09:00;96606.75;;;15.94;100.00
9139;BME280;4604;48.616;9.548;2023-04-28T11:11:27;96598.78;;;16.23;100.00
9139;BME280;4604;48.616;9.548;2023-04-28T11:13:56;96594.91;;;16.11;100.00
9139;BME280;4604;48.616;9.548;2023-04-28T11:16:49;96601.56;;;16.45;100.00
9139;BME280;4604;48.616;9.548;2023-04-28T11:19:17;96606.59;;;16.69;100.00
9139;BME280;4604;48.616;9.548;2023-04-28T11:21:48;96609.34;;;16.91;100.00
9139;BME280;4604;48.616;9.548;2023-04-28T11:24:15;96608.16;;;16.64;100.00
9139;BME280;4604;48.616;9.548;2023-04-28T11:26:42;96604.19;;;16.75;100.00
9139;BME280;4604;48.616;9.548;2023-04-28T11:29:10;96609.09;;;16.71;100.00
9139;BME280;4604;48.616;9.548;2023-04-28T11:31:37;96605.31;;;16.51;100.00
9139;BME280;4604;48.616;9.548;2023-04-28T11:34:06;96610.03;;;16.48;100.00
9139;BME280;4604;48.616;9.548;2023-04-28T11:36:37;96597.63;;;16.56;100.00
9139;BME280;4604;48.616;9.548;2023-04-28T11:39:06;96604.75;;;16.70;100.00
9139;BME280;4604;48.616;9.548;2023-04-28T11:41:34;96598.34;;;16.79;100.00
9139;BME280;4604;48.616;9.548;2023-04-28T11:44:09;96605.00;;;16.75;100.00
9139;BME280;4604;48.616;9.548;2023-04-28T11:46:43;96602.66;;;16.65;100.00
9139;BME280;4604;48.616;9.548;2023-04-28T11:49:11;96603.19;;;16.31;100.00
9139;BME280;4604;48.616;9.548;2023-04-28T11:51:39;96610.38;;;16.31;100.00
9139;BME280;4604;48.616;9.548;2023-04-28T11:54:07;96600.75;;;16.30;100.00
9139;BME280;4604;48.616;9.548;2023-04-28T11:56:37;96594.28;;;16.24;100.00
9139;BME280;4604;48.616;9.548;2023-04-28T11:59:06;96596.13;;;16.23;100.00
9139;BME280;4604;48.616;9.548;2023-04-28T12:01:34;96587.59;;;16.28;100.00
9139;BME280;4604;48.616;9.548;2023-04-28T12:04:09;96584.56;;;16.31;100.00
9139;BME280;4604;48.616;9.548;2023-04-28T12:06:38;96595.13;;;16.24;100.00
9139;BME280;4604;48.616;9.548;2023-04-28T12:09:14;96603.94;;;16.40;100.00
9139;BME280;4604;48.616;9.548;2023-04-28T12:11:51;96579.97;;;16.25;100.00
9139;BME280;4604;48.616;9.548;2023-04-28T12:14:18;96589.34;;;16.36;100.00
9139;BME280;4604;48.616;9.548;2023-04-28T12:16:46;96586.59;;;16.44;100.00
9139;BME280;4604;48.616;9.548;2023-04-28T12:19:14;96592.44;;;16.69;100.00
9139;BME280;4604;48.616;9.548;2023-04-28T12:21:42;96583.53;;;16.77;100.00
9139;BME280;4604;48.616;9.548;2023-04-28T12:24:16;96598.81;;;16.83;100.00
9139;BME280;4604;48.616;9.548;2023-04-28T12:26:43;96597.31;;;16.95;100.00
9139;BME280;4604;48.616;9.548;2023-04-28T12:29:41;96593.34;;;16.76;100.00
9139;BME280;4604;48.616;9.548;2023-04-28T12:32:09;96587.00;;;16.77;100.00
9139;BME280;4604;48.616;9.548;2023-04-28T12:34:37;96584.63;;;16.67;100.00
9139;BME280;4604;48.616;9.548;2023-04-28T12:37:04;96597.94;;;16.67;100.00
9139;BME280;4604;48.616;9.548;2023-04-28T12:39:32;96590.25;;;16.58;100.00
9139;BME280;4604;48.616;9.548;2023-04-28T12:41:59;96591.16;;;16.50;100.00
9139;BME280;4604;48.616;9.548;2023-04-28T12:44:27;96598.25;;;16.43;100.00
9139;BME280;4604;48.616;9.548;2023-04-28T12:46:55;96597.69;;;16.62;100.00
9139;BME280;4604;48.616;9.548;2023-04-28T12:49:22;96591.81;;;16.67;100.00
9139;BME280;4604;48.616;9.548;2023-04-28T12:51:48;96580.50;;;16.50;100.00
9139;BME280;4604;48.616;9.548;2023-04-28T12:54:15;96591.34;;;16.63;100.00
9139;BME280;4604;48.616;9.548;2023-04-28T12:56:42;96595.00;;;16.62;100.00
9139;BME280;4604;48.616;9.548;2023-04-28T12:59:09;96594.56;;;16.59;100.00
9139;BME280;4604;48.616;9.548;2023-04-28T13:01:36;96592.09;;;16.57;100.00
9139;BME280;4604;48.616;9.548;2023-04-28T13:04:04;96585.09;;;16.71;100.00
9139;BME280;4604;48.616;9.548;2023-04-28T13:06:31;96583.97;;;16.95;100.00
9139;BME280;4604;48.616;9.548;2023-04-28T13:08:58;96577.84;;;17.16;100.00
9139;BME280;4604;48.616;9.548;2023-04-28T13:11:24;96586.31;;;17.41;100.00
9139;BME280;4604;48.616;9.548;2023-04-28T13:13:52;96566.91;;;17.75;97.55
9139;BME280;4604;48.616;9.548;2023-04-28T13:16:19;96570.09;;;17.64;94.26
9139;BME280;4604;48.616;9.548;2023-04-28T13:18:47;96567.66;;;17.91;91.11
9139;BME280;4604;48.616;9.548;2023-04-28T13:21:15;96563.06;;;18.41;86.91
9139;BME280;4604;48.616;9.548;2023-04-28T13:23:42;96575.03;;;18.93;87.16
9139;BME280;4604;48.616;9.548;2023-04-28T13:26:09;96567.28;;;19.18;86.31
9139;BME280;4604;48.616;9.548;2023-04-28T13:28:35;96560.34;;;19.57;82.84